Time;durP1;ratioP1;P1;durP2;ratioP2;P2;SDS_P1;SDS_P2;PMS_P1;PMS_P2;Temp;Humidity;BMP_temperature;BMP_pressure;BME280_temperature;BME280_humidity;BME280_pressure;Samples;Min_cycle;Max_cycle;Signal;HPM_P1;HPM_P2
2022/08/13 00:01:23;;;;;;;9.00;6.85;;;27.30;52.20;;;;;;5013363;51;20986;-32
2022/08/13 00:13:18;;;;;;;8.00;6.57;;;27.20;52.40;;;;;;5017546;51;21074;-28
2022/08/13 00:18:20;;;;;;;8.77;6.47;;;27.30;52.70;;;;;;5099698;51;21528;-26
2022/08/13 00:23:24;;;;;;;8.55;6.53;;;27.20;52.80;;;;;;5027787;51;21464;-30
2022/08/13 00:28:28;;;;;;;8.32;6.53;;;27.20;53.00;;;;;;5035893;51;21022;-36
2022/08/13 00:33:29;;;;;;;7.45;6.28;;;27.20;53.10;;;;;;5019931;51;21456;-32
2022/08/13 00:38:30;;;;;;;9.65;7.30;;;27.20;53.30;;;;;;5007505;51;20982;-33
2022/08/13 00:43:33;;;;;;;7.03;6.00;;;27.20;53.30;;;;;;5023858;51;21480;-29
2022/08/13 00:48:43;;;;;;;7.68;6.28;;;27.20;53.50;;;;;;5017275;51;20974;-31
2022/08/13 00:53:44;;;;;;;9.57;6.60;;;27.20;53.40;;;;;;5022298;51;21069;-38
2022/08/13 00:58:46;;;;;;;8.05;6.40;;;27.20;53.70;;;;;;5022413;51;21519;-31
2022/08/13 01:03:47;;;;;;;8.77;6.45;;;27.20;53.70;;;;;;5036160;51;21484;-29
2022/08/13 01:08:48;;;;;;;7.57;6.30;;;27.20;53.80;;;;;;5027379;51;20982;-32
2022/08/13 01:13:53;;;;;;;9.45;6.20;;;27.20;53.70;;;;;;5010586;51;21930;-32
2022/08/13 01:18:54;;;;;;;8.50;5.80;;;27.20;53.90;;;;;;5019293;51;21081;-33
2022/08/13 01:23:55;;;;;;;8.63;6.30;;;27.20;53.90;;;;;;5011377;51;21058;-26
2022/08/13 01:28:56;;;;;;;9.20;6.70;;;27.10;53.90;;;;;;5073889;51;21469;-34
2022/08/13 01:33:59;;;;;;;9.27;6.12;;;27.20;54.10;;;;;;5022200;51;21503;-32
2022/08/13 01:39:04;;;;;;;9.00;6.28;;;27.10;54.00;;;;;;5022374;51;21476;-32
2022/08/13 01:44:05;;;;;;;8.20;5.97;;;27.20;54.10;;;;;;5010980;51;21475;-34
2022/08/13 01:54:25;;;;;;;6.72;5.70;;;27.10;54.30;;;;;;5008107;51;21133;-31
2022/08/13 01:59:27;;;;;;;6.70;5.72;;;27.20;54.40;;;;;;5066322;51;21002;-37
2022/08/13 02:04:28;;;;;;;8.25;6.20;;;27.10;54.60;;;;;;5037772;51;20979;-36
2022/08/13 02:09:29;;;;;;;8.00;6.03;;;27.10;54.30;;;;;;5038198;51;21056;-33
2022/08/13 02:14:31;;;;;;;6.70;5.82;;;27.10;54.40;;;;;;5007807;51;20982;-27
2022/08/13 02:19:34;;;;;;;8.63;6.32;;;27.10;55.00;;;;;;5008150;55;21476;-32
2022/08/13 02:24:35;;;;;;;6.75;6.00;;;27.10;54.50;;;;;;5032621;51;21565;-30
2022/08/13 02:29:37;;;;;;;8.82;6.30;;;27.10;54.40;;;;;;5051787;51;21049;-33
2022/08/13 02:34:39;;;;;;;7.12;5.60;;;27.10;54.60;;;;;;5013900;51;21548;-27
2022/08/13 02:39:40;;;;;;;8.57;6.57;;;27.10;55.10;;;;;;5008751;51;21547;-31
2022/08/13 02:44:40;;;;;;;8.13;6.07;;;27.10;54.50;;;;;;5016290;51;20994;-26
2022/08/13 02:49:42;;;;;;;7.95;5.78;;;27.10;54.60;;;;;;5041246;51;21088;-30
2022/08/13 02:54:44;;;;;;;9.80;6.20;;;27.10;54.60;;;;;;5032182;51;21017;-37
2022/08/13 02:59:45;;;;;;;7.57;5.68;;;27.10;54.50;;;;;;5053125;51;20970;-27
2022/08/13 03:04:46;;;;;;;7.03;6.03;;;27.10;54.50;;;;;;5007916;55;20960;-34
2022/08/13 03:09:47;;;;;;;7.18;6.05;;;27.10;54.50;;;;;;5042661;51;21643;-37
2022/08/13 03:14:49;;;;;;;6.50;5.90;;;27.10;54.80;;;;;;5020002;51;21002;-37
2022/08/13 03:19:51;;;;;;;8.02;6.25;;;27.10;54.90;;;;;;5028330;51;21085;-36
2022/08/13 03:24:52;;;;;;;8.40;5.97;;;27.10;54.80;;;;;;5008343;55;21447;-31
2022/08/13 03:29:53;;;;;;;8.35;6.40;;;27.10;54.80;;;;;;5024987;51;21017;-36
2022/08/13 03:34:55;;;;;;;9.05;6.35;;;27.10;54.90;;;;;;5055431;51;21975;-33
2022/08/13 03:39:56;;;;;;;8.10;7.10;;;27.10;55.00;;;;;;5007665;55;21460;-33
2022/08/13 03:44:57;;;;;;;8.20;6.85;;;27.10;55.10;;;;;;5069879;51;20962;-26
2022/08/13 03:50:04;;;;;;;12.88;7.20;;;27.10;55.10;;;;;;5034521;51;21026;-30
2022/08/13 03:55:11;;;;;;;8.75;6.95;;;27.10;55.20;;;;;;5016688;51;20970;-26
2022/08/13 04:00:13;;;;;;;9.88;7.70;;;27.10;55.10;;;;;;5008162;55;21008;-33
2022/08/13 04:05:17;;;;;;;9.55;8.20;;;27.10;55.10;;;;;;5010502;51;21596;-33
2022/08/13 04:10:19;;;;;;;12.57;8.50;;;27.10;55.30;;;;;;5025871;51;21500;-34
2022/08/13 04:15:19;;;;;;;12.52;9.10;;;27.10;55.80;;;;;;5025341;51;21615;-30
2022/08/13 04:20:21;;;;;;;13.85;9.10;;;27.10;55.10;;;;;;5026017;51;21021;-32
2022/08/13 04:25:23;;;;;;;11.68;9.25;;;27.10;55.10;;;;;;5021596;51;21559;-36
2022/08/13 04:30:24;;;;;;;11.82;8.85;;;27.10;55.00;;;;;;5033535;51;21417;-29
2022/08/13 04:35:24;;;;;;;11.90;9.23;;;27.10;55.20;;;;;;5024585;51;21030;-31
2022/08/13 04:40:25;;;;;;;13.27;9.57;;;27.10;55.10;;;;;;5056017;51;21041;-36
2022/08/13 04:45:28;;;;;;;12.65;9.20;;;27.00;54.90;;;;;;5062620;51;21464;-27
2022/08/13 04:50:34;;;;;;;13.57;9.98;;;27.10;54.90;;;;;;5007834;55;20990;-30
2022/08/13 04:55:36;;;;;;;12.40;9.13;;;27.10;55.00;;;;;;5013359;51;21549;-30
2022/08/13 05:00:37;;;;;;;13.52;9.88;;;27.00;54.90;;;;;;5019165;51;20990;-33
2022/08/13 05:05:39;;;;;;;14.30;9.35;;;27.10;55.10;;;;;;5013010;51;20970;-29
2022/08/13 05:10:40;;;;;;;14.25;9.95;;;27.00;55.60;;;;;;5007825;55;21364;-34
2022/08/13 05:15:40;;;;;;;12.57;10.40;;;27.00;54.90;;;;;;5007432;55;21111;-32
2022/08/13 05:20:42;;;;;;;12.88;10.35;;;27.00;55.00;;;;;;5007598;55;20997;-28
2022/08/13 05:25:43;;;;;;;14.20;11.43;;;27.00;55.00;;;;;;5011126;51;21536;-32
2022/08/13 05:30:46;;;;;;;13.25;11.38;;;27.00;55.00;;;;;;5012706;51;20998;-38
2022/08/13 05:35:50;;;;;;;13.90;11.25;;;27.00;55.00;;;;;;5037022;51;21001;-25
2022/08/13 05:40:53;;;;;;;13.05;11.35;;;27.00;55.00;;;;;;5030235;51;20994;-26
2022/08/13 05:46:00;;;;;;;13.60;11.25;;;27.00;55.00;;;;;;5042636;51;21069;-26
2022/08/13 05:51:03;;;;;;;14.48;11.90;;;27.00;54.90;;;;;;5010820;51;21014;-35
2022/08/13 05:56:05;;;;;;;14.10;11.85;;;27.00;54.90;;;;;;5012152;51;21459;-29
2022/08/13 06:06:32;;;;;;;16.35;11.60;;;27.00;55.00;;;;;;5007939;55;21136;-27
2022/08/13 06:11:33;;;;;;;16.37;12.00;;;27.00;55.00;;;;;;5021838;51;21516;-30
2022/08/13 06:16:35;;;;;;;14.13;12.37;;;27.00;55.00;;;;;;5024600;51;21022;-27
2022/08/13 06:21:37;;;;;;;15.77;12.37;;;27.00;55.00;;;;;;5051062;51;21014;-30
2022/08/13 06:26:38;;;;;;;18.65;13.30;;;27.00;55.00;;;;;;5015138;51;21471;-27
2022/08/13 06:31:40;;;;;;;18.55;13.62;;;27.00;55.10;;;;;;5033013;51;21009;-31
2022/08/13 06:36:41;;;;;;;20.88;13.60;;;27.00;55.00;;;;;;5051737;51;21487;-33
2022/08/13 06:41:44;;;;;;;21.70;14.30;;;27.00;55.00;;;;;;5006741;55;21038;-27
2022/08/13 06:46:46;;;;;;;22.25;15.07;;;27.00;55.00;;;;;;5058761;51;21542;-29
2022/08/13 06:51:47;;;;;;;21.42;15.02;;;27.00;55.00;;;;;;5015284;51;21487;-28
2022/08/13 06:56:48;;;;;;;26.95;17.70;;;27.00;54.90;;;;;;5038711;51;21006;-30
2022/08/13 07:02:00;;;;;;;27.60;19.20;;;27.00;55.00;;;;;;5043551;51;21009;-29
2022/08/13 07:07:03;;;;;;;28.17;20.02;;;27.00;55.00;;;;;;5026790;51;21539;-29
2022/08/13 07:12:04;;;;;;;31.85;21.48;;;27.00;55.00;;;;;;5007920;51;21563;-26
2022/08/13 07:17:06;;;;;;;32.53;21.90;;;27.00;55.00;;;;;;5018809;51;21503;-29
2022/08/13 07:22:07;;;;;;;30.48;22.45;;;27.00;54.90;;;;;;5022329;51;21002;-28
2022/08/13 07:27:08;;;;;;;36.67;24.50;;;27.00;54.90;;;;;;5020097;51;21002;-26
2022/08/13 07:32:09;;;;;;;37.90;25.52;;;27.00;54.80;;;;;;5007848;55;21962;-29
2022/08/13 07:37:21;;;;;;;41.50;28.50;;;27.00;55.00;;;;;;5023006;51;21038;-30
2022/08/13 07:42:23;;;;;;;41.15;28.30;;;27.00;54.80;;;;;;5056248;51;21538;-28
2022/08/13 07:47:24;;;;;;;43.00;28.92;;;27.00;54.70;;;;;;5057043;51;21045;-29
2022/08/13 07:52:28;;;;;;;45.38;30.75;;;27.00;54.80;;;;;;5027763;51;21065;-33
2022/08/13 07:57:31;;;;;;;49.53;31.48;;;27.00;54.80;;;;;;5014619;51;21034;-27
2022/08/13 08:02:32;;;;;;;48.63;30.88;;;27.00;55.40;;;;;;5030500;51;21026;-26
2022/08/13 08:07:35;;;;;;;44.53;29.98;;;27.00;54.80;;;;;;5049132;51;21422;-28
2022/08/13 08:12:37;;;;;;;48.10;30.27;;;27.00;54.80;;;;;;5092594;51;21014;-28
2022/08/13 08:17:40;;;;;;;46.45;30.55;;;27.00;54.70;;;;;;5035536;51;21574;-29
2022/08/13 08:22:45;;;;;;;49.42;31.17;;;27.00;54.70;;;;;;5041931;51;21460;-29
2022/08/13 08:27:47;;;;;;;43.75;31.08;;;27.00;54.60;;;;;;5007669;55;21480;-27
2022/08/13 08:32:52;;;;;;;46.08;30.95;;;27.00;54.70;;;;;;5060815;51;21072;-26
2022/08/13 08:43:18;;;;;;;46.92;31.80;;;27.00;54.60;;;;;;5006693;51;21558;-26
2022/08/13 08:48:19;;;;;;;43.65;31.15;;;27.00;54.60;;;;;;5059096;51;21069;-30
2022/08/13 08:53:22;;;;;;;45.88;30.83;;;27.00;54.60;;;;;;5045317;51;21765;-28
2022/08/13 08:58:23;;;;;;;50.25;32.45;;;27.00;54.60;;;;;;5044715;51;21042;-33
2022/08/13 09:03:28;;;;;;;53.60;34.00;;;27.00;54.60;;;;;;5007236;55;21484;-29
2022/08/13 09:08:32;;;;;;;49.97;34.97;;;27.00;54.60;;;;;;5027263;51;21030;-27
2022/08/13 09:13:34;;;;;;;53.22;36.53;;;27.00;54.50;;;;;;5056471;51;21721;-29
2022/08/13 09:18:35;;;;;;;48.13;34.53;;;27.10;54.50;;;;;;5029721;51;21011;-31
2022/08/13 09:23:42;;;;;;;53.60;36.13;;;27.00;54.50;;;;;;5014909;51;21065;-30
2022/08/13 09:28:45;;;;;;;50.92;35.47;;;27.00;54.40;;;;;;5020982;51;21562;-29
2022/08/13 09:33:48;;;;;;;51.28;36.78;;;27.00;54.40;;;;;;5009572;51;21531;-27
2022/08/13 09:38:50;;;;;;;48.45;34.78;;;27.00;54.40;;;;;;5011373;51;22039;-28
2022/08/13 09:43:52;;;;;;;51.15;35.75;;;27.00;54.40;;;;;;5030860;51;21532;-28
2022/08/13 09:48:54;;;;;;;48.72;34.55;;;27.10;54.30;;;;;;5008263;55;21069;-29
2022/08/13 09:53:56;;;;;;;47.67;33.33;;;27.00;54.30;;;;;;5007691;55;21448;-29
2022/08/13 09:58:58;;;;;;;47.72;34.25;;;27.00;54.20;;;;;;5007107;55;22332;-28
2022/08/13 10:03:59;;;;;;;43.25;32.80;;;27.00;54.10;;;;;;5071098;51;21531;-29
2022/08/13 10:09:00;;;;;;;45.33;33.90;;;27.00;54.10;;;;;;5023899;51;21186;-30
2022/08/13 10:14:01;;;;;;;45.30;33.58;;;27.00;54.10;;;;;;5012015;51;21686;-28
2022/08/13 10:19:03;;;;;;;47.42;33.60;;;27.00;54.00;;;;;;5006769;52;21034;-28
2022/08/13 10:24:05;;;;;;;45.17;34.10;;;27.00;54.00;;;;;;5007380;55;21552;-28
2022/08/13 10:29:08;;;;;;;42.10;32.65;;;27.00;54.00;;;;;;5035390;51;21018;-30
2022/08/13 10:34:08;;;;;;;42.70;32.63;;;27.10;54.00;;;;;;5008711;55;21460;-31
2022/08/13 10:39:09;;;;;;;41.42;31.87;;;27.00;53.90;;;;;;5014707;51;21089;-30
2022/08/13 10:44:12;;;;;;;42.72;31.80;;;27.10;53.90;;;;;;5032839;51;21052;-30
2022/08/13 10:49:13;;;;;;;40.45;31.40;;;27.00;53.80;;;;;;5019188;51;21460;-29
2022/08/13 10:54:14;;;;;;;38.83;32.03;;;27.00;53.80;;;;;;5047366;51;21463;-35
2022/08/13 10:59:15;;;;;;;39.72;31.25;;;27.10;53.80;;;;;;5017497;51;20970;-28
2022/08/13 11:04:17;;;;;;;39.90;31.75;;;27.00;53.80;;;;;;5032370;51;21117;-30
2022/08/13 11:09:18;;;;;;;41.33;31.52;;;27.10;53.80;;;;;;5007638;55;21536;-28
2022/08/13 11:14:19;;;;;;;39.25;30.67;;;27.00;53.70;;;;;;5029767;51;21006;-30
2022/08/13 11:19:25;;;;;;;38.92;30.37;;;27.10;53.80;;;;;;5008877;55;21503;-31
2022/08/13 11:24:26;;;;;;;37.67;31.42;;;27.00;53.80;;;;;;5006627;55;21492;-30
2022/08/13 11:29:27;;;;;;;38.72;30.75;;;27.00;53.80;;;;;;5015364;51;21018;-28
2022/08/13 11:34:27;;;;;;;36.90;29.73;;;27.00;53.70;;;;;;5010925;51;21465;-30
2022/08/13 11:39:29;;;;;;;36.63;29.83;;;27.00;53.70;;;;;;5020444;51;21480;-29
2022/08/13 11:44:30;;;;;;;37.30;28.87;;;27.00;53.70;;;;;;5006705;51;21519;-29
2022/08/13 11:49:31;;;;;;;40.97;30.08;;;27.10;53.80;;;;;;5008126;52;21038;-28
2022/08/13 11:54:32;;;;;;;37.00;29.48;;;27.00;53.70;;;;;;5010820;51;21009;-33
2022/08/13 11:59:33;;;;;;;36.97;28.30;;;27.10;53.90;;;;;;5038431;51;20966;-32
2022/08/13 12:04:36;;;;;;;36.67;28.65;;;27.00;53.70;;;;;;5012469;51;21005;-29
2022/08/13 12:09:37;;;;;;;35.45;28.12;;;27.10;53.70;;;;;;5032729;51;21058;-33
2022/08/13 12:14:39;;;;;;;36.30;27.98;;;27.00;53.80;;;;;;5036590;51;20998;-28
2022/08/13 12:19:40;;;;;;;35.20;28.48;;;27.10;53.80;;;;;;5026565;51;21564;-30
2022/08/13 12:24:42;;;;;;;35.85;27.45;;;27.10;53.80;;;;;;5034844;51;20990;-27
2022/08/13 12:29:43;;;;;;;34.33;27.33;;;27.10;53.80;;;;;;5052155;51;21093;-26
2022/08/13 12:34:45;;;;;;;33.03;26.67;;;27.10;53.80;;;;;;5015143;51;21073;-26
2022/08/13 12:39:46;;;;;;;30.37;25.65;;;27.10;53.80;;;;;;5007371;55;21467;-32
2022/08/13 12:44:47;;;;;;;29.85;24.77;;;27.10;53.80;;;;;;5034074;51;20978;-28
2022/08/13 12:49:48;;;;;;;29.63;25.80;;;27.10;53.80;;;;;;5090068;51;20984;-29
2022/08/13 12:54:49;;;;;;;31.25;24.55;;;27.10;53.80;;;;;;5018795;51;21013;-27
2022/08/13 12:59:50;;;;;;;31.15;24.23;;;27.10;53.80;;;;;;5062673;51;21499;-26
2022/08/13 13:04:50;;;;;;;29.45;23.20;;;27.10;53.90;;;;;;5032528;51;21005;-27
2022/08/13 13:09:53;;;;;;;29.75;24.63;;;27.10;53.90;;;;;;5011525;51;21011;-27
2022/08/13 13:14:54;;;;;;;29.20;24.10;;;27.10;53.90;;;;;;5032218;51;21543;-32
2022/08/13 13:19:54;;;;;;;26.48;22.98;;;27.10;54.00;;;;;;5034861;51;20978;-33
2022/08/13 13:24:58;;;;;;;26.48;22.52;;;27.10;54.00;;;;;;5054930;51;21080;-31
2022/08/13 13:29:59;;;;;;;28.10;22.87;;;27.10;54.00;;;;;;5025424;51;21081;-29
2022/08/13 13:35:00;;;;;;;28.10;22.33;;;27.00;53.90;;;;;;5014890;51;21112;-29
2022/08/13 13:40:01;;;;;;;26.95;22.33;;;27.00;53.90;;;;;;5030999;51;21037;-27
2022/08/13 13:45:03;;;;;;;25.62;21.25;;;27.10;54.00;;;;;;5010829;51;21069;-29
2022/08/13 13:50:06;;;;;;;24.87;21.85;;;27.10;54.00;;;;;;5015360;51;21049;-28
2022/08/13 13:55:07;;;;;;;26.55;21.65;;;27.10;54.00;;;;;;5009496;51;20990;-30
2022/08/13 14:00:12;;;;;;;25.27;20.55;;;27.10;54.00;;;;;;5023926;51;21044;-28
2022/08/13 14:05:13;;;;;;;24.52;20.45;;;27.10;54.00;;;;;;5008055;55;21536;-29
2022/08/13 14:10:16;;;;;;;22.50;19.52;;;27.10;54.00;;;;;;5018895;51;21079;-31
2022/08/13 14:15:18;;;;;;;21.25;18.95;;;27.10;54.00;;;;;;5074064;51;20998;-36
2022/08/13 14:20:23;;;;;;;21.95;19.58;;;27.00;54.60;;;;;;5043903;51;21455;-26
2022/08/13 14:25:24;;;;;;;23.38;20.12;;;27.00;54.00;;;;;;5036166;51;21045;-35
2022/08/13 14:30:25;;;;;;;20.02;17.92;;;27.10;54.10;;;;;;5013170;51;20981;-34
2022/08/13 14:35:26;;;;;;;23.65;18.77;;;27.00;54.10;;;;;;5008450;51;21050;-29
2022/08/13 14:40:26;;;;;;;19.20;17.20;;;27.10;54.20;;;;;;5039148;51;20986;-26
2022/08/13 14:45:49;;;;;;;20.25;17.90;;;27.10;54.40;;;;;;5079197;51;20954;-36
2022/08/13 14:51:12;;;;;;;19.75;17.05;;;27.10;54.40;;;;;;5028493;51;22113;-26
2022/08/13 14:56:18;;;;;;;20.73;17.40;;;27.00;54.40;;;;;;5007224;55;20954;-30
2022/08/13 15:01:20;;;;;;;21.93;17.57;;;27.00;54.40;;;;;;5021156;51;21902;-33
2022/08/13 15:06:22;;;;;;;20.27;17.50;;;27.10;54.50;;;;;;5034603;51;21463;-27
2022/08/13 15:11:26;;;;;;;21.40;17.30;;;27.00;54.50;;;;;;5045540;51;20994;-29
2022/08/13 15:16:28;;;;;;;21.85;17.80;;;27.00;54.60;;;;;;5029194;51;21483;-31
2022/08/13 15:21:29;;;;;;;22.62;17.98;;;27.00;54.60;;;;;;5025363;51;21551;-28
2022/08/13 15:26:30;;;;;;;22.02;18.00;;;27.00;54.70;;;;;;5027282;51;20994;-29
2022/08/13 15:31:31;;;;;;;21.80;18.50;;;27.00;54.70;;;;;;5051318;51;21022;-29
2022/08/13 15:36:32;;;;;;;22.50;17.45;;;27.10;54.80;;;;;;5013544;51;21096;-31
2022/08/13 15:41:33;;;;;;;19.37;16.35;;;27.10;54.80;;;;;;5025746;51;21029;-30
2022/08/13 15:46:34;;;;;;;22.17;17.85;;;27.00;54.80;;;;;;5036770;51;21989;-31
2022/08/13 15:51:35;;;;;;;20.88;16.30;;;27.00;54.80;;;;;;5029031;51;21006;-34
2022/08/13 15:56:36;;;;;;;21.83;16.17;;;27.00;54.90;;;;;;5074355;51;22174;-32
2022/08/13 16:01:37;;;;;;;20.40;17.00;;;27.00;55.00;;;;;;5044676;51;21026;-33
2022/08/13 16:06:39;;;;;;;19.62;16.58;;;27.00;55.00;;;;;;5029888;51;21089;-30
2022/08/13 16:11:40;;;;;;;20.58;16.98;;;27.00;55.20;;;;;;5025124;51;21077;-33
2022/08/13 16:16:42;;;;;;;19.73;17.10;;;27.10;55.40;;;;;;5015509;51;21097;-28
2022/08/13 16:21:43;;;;;;;19.42;16.40;;;27.00;55.40;;;;;;5025829;51;21188;-38
2022/08/13 16:26:47;;;;;;;20.20;17.23;;;27.00;55.50;;;;;;5023067;51;21995;-30
2022/08/13 16:31:48;;;;;;;21.37;18.10;;;27.00;55.70;;;;;;5007672;55;20982;-36
2022/08/13 16:36:51;;;;;;;21.00;16.85;;;27.00;55.80;;;;;;5007995;55;21067;-32
2022/08/13 16:41:53;;;;;;;21.12;17.80;;;27.00;55.90;;;;;;5042331;51;21463;-34
2022/08/13 16:46:54;;;;;;;18.45;16.20;;;27.00;56.00;;;;;;5016607;51;21464;-30
2022/08/13 16:51:55;;;;;;;22.95;17.62;;;27.00;56.10;;;;;;5049306;51;20986;-30
2022/08/13 16:56:56;;;;;;;22.20;18.95;;;27.00;56.30;;;;;;5012689;51;21527;-29
2022/08/13 17:01:58;;;;;;;21.52;19.17;;;27.00;56.30;;;;;;5016169;51;21069;-32
2022/08/13 17:12:19;;;;;;;24.98;20.05;;;27.10;56.60;;;;;;5007521;51;21097;-37
2022/08/13 17:17:20;;;;;;;22.13;19.37;;;27.00;56.80;;;;;;5010377;51;21500;-32
2022/08/13 17:22:22;;;;;;;20.52;18.30;;;27.00;57.00;;;;;;5007803;55;21463;-27
2022/08/13 17:27:23;;;;;;;19.40;17.33;;;27.00;57.00;;;;;;5007675;55;21544;-29
2022/08/13 17:32:24;;;;;;;18.35;16.12;;;27.00;56.90;;;;;;5022854;51;21468;-35
2022/08/13 17:37:26;;;;;;;19.02;16.05;;;27.00;57.10;;;;;;5014199;51;20994;-27
2022/08/13 17:42:27;;;;;;;21.02;15.98;;;27.00;56.90;;;;;;5009136;51;21042;-28
2022/08/13 17:47:28;;;;;;;19.10;14.48;;;27.00;56.90;;;;;;5007696;55;20986;-32
2022/08/13 17:52:32;;;;;;;16.90;14.05;;;27.00;56.70;;;;;;5067521;51;21121;-28
2022/08/13 17:57:33;;;;;;;16.20;13.80;;;27.00;56.70;;;;;;5017666;51;21029;-27
2022/08/13 18:02:34;;;;;;;16.20;14.38;;;27.00;56.50;;;;;;5006941;55;20982;-28
2022/08/13 18:07:34;;;;;;;20.00;14.45;;;27.00;56.50;;;;;;5008257;51;20998;-31
2022/08/13 18:12:35;;;;;;;17.23;14.77;;;26.90;56.40;;;;;;5009595;51;21068;-28
2022/08/13 18:17:39;;;;;;;19.05;14.90;;;27.00;56.50;;;;;;5017254;51;21045;-26
2022/08/13 18:22:40;;;;;;;17.23;14.55;;;27.00;56.40;;;;;;5029248;51;21496;-28
2022/08/13 18:27:42;;;;;;;20.80;15.80;;;27.00;56.30;;;;;;5008607;52;21066;-36
2022/08/13 18:32:47;;;;;;;19.30;15.15;;;26.90;56.20;;;;;;5009412;51;21053;-37
2022/08/13 18:37:49;;;;;;;16.95;14.23;;;27.00;56.20;;;;;;5008132;55;20966;-27
2022/08/13 18:42:52;;;;;;;16.73;14.77;;;26.90;56.10;;;;;;5039789;51;20990;-27
2022/08/13 18:47:53;;;;;;;16.85;13.90;;;26.90;56.00;;;;;;5023315;51;21475;-29
2022/08/13 18:52:54;;;;;;;16.70;14.05;;;26.90;56.00;;;;;;5057231;51;21044;-36
2022/08/13 18:57:55;;;;;;;18.15;14.65;;;26.90;55.90;;;;;;5047529;51;21105;-27
2022/08/13 19:02:56;;;;;;;14.87;13.07;;;26.90;55.90;;;;;;5015681;51;20990;-32
2022/08/13 19:07:57;;;;;;;16.58;13.65;;;26.90;55.90;;;;;;5021097;51;21400;-30
2022/08/13 19:12:59;;;;;;;16.08;12.60;;;26.90;55.80;;;;;;5045710;51;20990;-35
2022/08/13 19:18:00;;;;;;;16.12;12.45;;;26.90;55.80;;;;;;5022945;51;21578;-35
2022/08/13 19:23:02;;;;;;;13.77;12.07;;;26.90;55.80;;;;;;5093724;51;22175;-37
2022/08/13 19:28:03;;;;;;;15.60;12.48;;;26.90;55.80;;;;;;5024099;51;21484;-29
2022/08/13 19:33:05;;;;;;;14.95;12.40;;;26.90;55.70;;;;;;5041448;51;21081;-28
2022/08/13 19:38:06;;;;;;;13.13;11.73;;;26.80;55.60;;;;;;5081422;51;20986;-27
2022/08/13 19:43:07;;;;;;;13.95;10.90;;;26.90;55.50;;;;;;5082212;51;21065;-29
2022/08/13 19:48:08;;;;;;;15.68;11.02;;;26.90;55.50;;;;;;5022445;51;21033;-30
2022/08/13 19:53:10;;;;;;;11.18;9.98;;;26.90;55.40;;;;;;5013035;51;21136;-29
2022/08/13 19:58:11;;;;;;;12.55;9.77;;;26.90;55.30;;;;;;5044671;51;21050;-31
2022/08/13 20:03:20;;;;;;;13.95;9.15;;;26.80;55.20;;;;;;5011241;51;21002;-31
2022/08/13 20:08:22;;;;;;;11.02;8.85;;;26.80;55.20;;;;;;5017088;51;21452;-28
2022/08/13 20:13:23;;;;;;;11.00;9.35;;;26.80;55.20;;;;;;5014925;51;21519;-26
2022/08/13 20:18:26;;;;;;;9.75;8.40;;;26.80;55.10;;;;;;5007349;55;21046;-37
2022/08/13 20:23:28;;;;;;;11.93;8.60;;;26.80;55.00;;;;;;5059743;51;21007;-30
2022/08/13 20:28:29;;;;;;;10.48;8.45;;;26.80;55.00;;;;;;5007708;55;21460;-28
2022/08/13 20:33:32;;;;;;;12.35;8.68;;;26.80;55.00;;;;;;5036339;51;21555;-34
2022/08/13 20:38:34;;;;;;;12.57;8.23;;;26.80;54.90;;;;;;5044299;51;21440;-27
2022/08/13 20:43:36;;;;;;;9.55;8.05;;;26.80;54.80;;;;;;5012529;51;20994;-29
2022/08/13 20:48:37;;;;;;;9.55;7.22;;;26.80;54.80;;;;;;5042849;51;21586;-28
2022/08/13 20:53:37;;;;;;;8.10;7.30;;;26.80;54.40;;;;;;5086365;51;21045;-28
2022/08/13 20:58:38;;;;;;;9.38;6.70;;;26.80;54.80;;;;;;5010980;51;20996;-31
2022/08/13 21:03:39;;;;;;;9.48;6.70;;;26.80;54.80;;;;;;5042537;51;21081;-30
2022/08/13 21:08:40;;;;;;;9.70;6.85;;;26.80;54.80;;;;;;5025763;51;20990;-29
2022/08/13 21:13:41;;;;;;;8.50;6.43;;;26.80;54.70;;;;;;5007589;53;22227;-30
2022/08/13 21:18:42;;;;;;;9.05;6.37;;;26.80;54.70;;;;;;5022277;51;21076;-30
2022/08/13 21:23:44;;;;;;;9.38;6.20;;;26.80;54.70;;;;;;5007431;52;21053;-29
2022/08/13 21:28:44;;;;;;;7.62;6.47;;;26.80;54.70;;;;;;5040880;51;20978;-29
2022/08/13 21:33:45;;;;;;;8.38;6.75;;;26.80;54.60;;;;;;5023483;51;21487;-28
2022/08/13 21:38:46;;;;;;;7.68;6.00;;;26.70;54.60;;;;;;5036891;51;21487;-26
2022/08/13 21:43:47;;;;;;;9.77;5.93;;;26.70;54.60;;;;;;5007008;55;21044;-29
2022/08/13 21:48:48;;;;;;;7.03;6.30;;;26.70;54.50;;;;;;5008638;51;20982;-30
2022/08/13 21:53:49;;;;;;;8.25;6.35;;;26.70;54.50;;;;;;5007776;55;20986;-27
2022/08/13 21:58:50;;;;;;;8.55;6.37;;;26.70;54.50;;;;;;5032979;51;21001;-34
2022/08/13 22:03:50;;;;;;;7.60;6.20;;;26.70;54.50;;;;;;5019182;51;20998;-29
2022/08/13 22:08:52;;;;;;;10.63;6.47;;;26.70;54.50;;;;;;5008300;53;20978;-28
2022/08/13 22:13:53;;;;;;;10.60;6.50;;;26.70;54.50;;;;;;5018088;51;21627;-29
2022/08/13 22:18:54;;;;;;;7.80;6.32;;;26.70;54.60;;;;;;5017986;51;21003;-28
2022/08/13 22:23:55;;;;;;;9.15;6.28;;;26.70;54.50;;;;;;5018780;51;20990;-35
2022/08/13 22:34:15;;;;;;;7.40;6.10;;;26.70;54.60;;;;;;5013168;51;21571;-32
2022/08/13 22:39:16;;;;;;;9.57;6.35;;;26.70;54.60;;;;;;5006699;55;21105;-36
2022/08/13 22:44:17;;;;;;;7.05;5.53;;;26.70;54.60;;;;;;5033623;51;21006;-30
2022/08/13 22:49:18;;;;;;;9.90;6.30;;;26.70;54.60;;;;;;5017535;51;20974;-32
2022/08/13 22:54:19;;;;;;;7.57;5.85;;;26.70;54.60;;;;;;5008213;55;21014;-27
2022/08/13 22:59:20;;;;;;;6.93;5.87;;;26.70;54.60;;;;;;5030248;51;21451;-28
2022/08/13 23:04:21;;;;;;;8.20;6.28;;;26.70;54.50;;;;;;5019680;51;21005;-28
2022/08/13 23:09:23;;;;;;;8.38;6.60;;;26.70;54.60;;;;;;5017182;51;21026;-27
2022/08/13 23:14:25;;;;;;;8.18;6.20;;;26.70;54.60;;;;;;5014266;51;20990;-28
2022/08/13 23:19:26;;;;;;;8.70;6.30;;;26.70;54.60;;;;;;5057003;51;20962;-32
2022/08/13 23:24:27;;;;;;;10.02;7.30;;;26.60;54.50;;;;;;5007041;55;21480;-29
2022/08/13 23:29:28;;;;;;;8.68;6.47;;;26.70;54.60;;;;;;5008139;55;21442;-33
2022/08/13 23:34:32;;;;;;;10.13;7.07;;;26.70;54.60;;;;;;5086109;51;20990;-27
2022/08/13 23:39:33;;;;;;;8.30;6.45;;;26.70;54.50;;;;;;5009634;51;21686;-37
2022/08/13 23:44:33;;;;;;;10.63;7.10;;;26.70;54.60;;;;;;5009284;51;21061;-32
2022/08/13 23:49:34;;;;;;;8.93;6.80;;;26.70;54.70;;;;;;5032502;51;20966;-26
2022/08/13 23:54:35;;;;;;;11.85;7.40;;;26.70;54.60;;;;;;5007976;55;21037;-29
2022/08/13 23:59:36;;;;;;;11.27;7.78;;;26.70;54.50;;;;;;5039881;51;20978;-27
